KMCO/MCO METAR and TAF weather

Enter ICAO airport designator
Station Type Date Time Source
KMCO METAR 2019/08/23 18:18 UTC NOAA

KMCO 231818Z 36007KT 10SM TS SCT035CB SCT070 BKN090 BKN210 BKN250 28/25 A2999 RMK AO2 LTG DSNT E AND W TSE03B12 OCNL LTGICCG N-NE TS N-NE MOV SW CB DSNT ALQDS VCSH NE T02780250 $


Station Type Date Time Source
KMCO Decoded METAR 2019/08/23 18:18 UTC NOAA

Station name not available
Aug 23, 2019 - 02:18 PM EDT / 2019.08.23 1818 UTC
Wind: from the N (360 degrees) at 8 MPH (7 KT):0
Visibility: 10 mile(s):0
Sky conditions: mostly cloudy
Weather: thunder; Cumulonimbus clouds, lightning observed
Temperature: 82.0 F (27.8 C)
Dew Point: 77.0 F (25.0 C)
Relative Humidity: 84%
Pressure (altimeter): 29.99 in. Hg (1015 hPa)
ob: KMCO 231818Z 36007KT 10SM TS SCT035CB SCT070 BKN090 BKN210 BKN250 28/25 A2999 RMK AO2 LTG DSNT E AND W TSE03B12 OCNL LTGICCG N-NE TS N-NE MOV SW CB DSNT ALQDS VCSH NE T02780250
cycle: 18

Station Type Date Time Source
KMCO TAF 2019/08/23 18:42 UTC NOAA

TAF KMCO 231738Z 2318/2424 07012KT P6SM VCTS SCT030CB SCT070 BKN250
TEMPO 2318/2320 3SM SHRA BKN030 BKN060
FM232200 07008KT P6SM VCSH SCT025 SCT040 SCT250
FM240000 07005KT P6SM FEW015 SCT030 SCT250
FM241400 07007KT P6SM VCSH SCT025 SCT035 SCT250
FM241700 06009KT P6SM VCTS BKN040CB BKN070

Example: see airport list